sensor_id;sensor_type;location;lat;lon;timestamp;pressure;altitude;pressure_sealevel;temperature;humidity
77303;BME280;66363;49.828;7.856;2023-04-27T00:02:25;100388.00;;;3.93;77.54
77303;BME280;66363;49.828;7.856;2023-04-27T00:04:50;100390.09;;;3.85;77.35
77303;BME280;66363;49.828;7.856;2023-04-27T00:07:16;100392.88;;;3.80;78.04
77303;BME280;66363;49.828;7.856;2023-04-27T00:09:42;100385.00;;;3.80;78.03
77303;BME280;66363;49.828;7.856;2023-04-27T00:12:07;100389.56;;;3.75;78.33
77303;BME280;66363;49.828;7.856;2023-04-27T00:14:34;100388.88;;;3.70;79.25
77303;BME280;66363;49.828;7.856;2023-04-27T00:17:00;100392.50;;;3.67;78.86
77303;BME280;66363;49.828;7.856;2023-04-27T00:19:26;100386.38;;;3.67;79.30
77303;BME280;66363;49.828;7.856;2023-04-27T00:21:52;100391.69;;;3.65;78.95
77303;BME280;66363;49.828;7.856;2023-04-27T00:24:17;100397.00;;;3.64;79.04
77303;BME280;66363;49.828;7.856;2023-04-27T00:26:43;100399.56;;;3.65;78.52
77303;BME280;66363;49.828;7.856;2023-04-27T00:29:09;100393.44;;;3.65;78.94
77303;BME280;66363;49.828;7.856;2023-04-27T00:31:36;100386.81;;;3.56;78.56
77303;BME280;66363;49.828;7.856;2023-04-27T00:34:01;100388.91;;;3.47;79.21
77303;BME280;66363;49.828;7.856;2023-04-27T00:36:27;100396.09;;;3.41;79.89
77303;BME280;66363;49.828;7.856;2023-04-27T00:38:53;100396.19;;;3.38;80.08
77303;BME280;66363;49.828;7.856;2023-04-27T00:41:18;100400.59;;;3.38;79.96
77303;BME280;66363;49.828;7.856;2023-04-27T00:43:45;100392.28;;;3.27;80.09
77303;BME280;66363;49.828;7.856;2023-04-27T00:46:12;100392.16;;;3.30;80.30
77303;BME280;66363;49.828;7.856;2023-04-27T00:48:40;100386.16;;;3.26;79.94
77303;BME280;66363;49.828;7.856;2023-04-27T00:51:05;100394.41;;;3.16;80.37
77303;BME280;66363;49.828;7.856;2023-04-27T00:53:31;100382.06;;;3.19;80.47
77303;BME280;66363;49.828;7.856;2023-04-27T00:55:57;100384.78;;;3.16;80.03
77303;BME280;66363;49.828;7.856;2023-04-27T00:58:23;100386.00;;;3.08;81.46
77303;BME280;66363;49.828;7.856;2023-04-27T01:00:49;100380.97;;;3.01;81.51
77303;BME280;66363;49.828;7.856;2023-04-27T01:03:15;100390.63;;;2.99;82.33
77303;BME280;66363;49.828;7.856;2023-04-27T01:05:42;100390.63;;;2.99;82.15
77303;BME280;66363;49.828;7.856;2023-04-27T01:08:08;100388.00;;;2.99;82.18
77303;BME280;66363;49.828;7.856;2023-04-27T01:10:34;100390.84;;;2.93;82.66
77303;BME280;66363;49.828;7.856;2023-04-27T01:12:59;100397.00;;;2.92;82.88
77303;BME280;66363;49.828;7.856;2023-04-27T01:15:25;100393.63;;;2.89;83.31
77303;BME280;66363;49.828;7.856;2023-04-27T01:17:56;100392.81;;;2.87;83.29
77303;BME280;66363;49.828;7.856;2023-04-27T01:20:22;100393.81;;;2.84;82.97
77303;BME280;66363;49.828;7.856;2023-04-27T01:22:49;100399.00;;;2.86;82.57
77303;BME280;66363;49.828;7.856;2023-04-27T01:25:17;100393.16;;;2.78;83.21
77303;BME280;66363;49.828;7.856;2023-04-27T01:27:42;100393.97;;;2.80;82.76
77303;BME280;66363;49.828;7.856;2023-04-27T01:30:08;100402.84;;;2.76;83.15
77303;BME280;66363;49.828;7.856;2023-04-27T01:32:36;100404.75;;;2.70;83.77
77303;BME280;66363;49.828;7.856;2023-04-27T01:35:01;100403.03;;;2.69;83.11
77303;BME280;66363;49.828;7.856;2023-04-27T01:37:27;100399.72;;;2.64;83.48
77303;BME280;66363;49.828;7.856;2023-04-27T01:39:53;100392.81;;;2.62;83.34
77303;BME280;66363;49.828;7.856;2023-04-27T01:42:20;100393.19;;;2.51;83.26
77303;BME280;66363;49.828;7.856;2023-04-27T01:44:46;100396.03;;;2.44;83.62
77303;BME280;66363;49.828;7.856;2023-04-27T01:47:11;100390.72;;;2.47;83.49
77303;BME280;66363;49.828;7.856;2023-04-27T01:49:39;100387.22;;;2.46;83.65
77303;BME280;66363;49.828;7.856;2023-04-27T01:52:04;100394.38;;;2.41;83.75
77303;BME280;66363;49.828;7.856;2023-04-27T01:54:30;100405.75;;;2.40;83.91
77303;BME280;66363;49.828;7.856;2023-04-27T01:56:56;100399.97;;;2.30;83.99
77303;BME280;66363;49.828;7.856;2023-04-27T01:59:23;100401.66;;;2.33;84.18
77303;BME280;66363;49.828;7.856;2023-04-27T02:01:48;100399.94;;;2.32;84.15
77303;BME280;66363;49.828;7.856;2023-04-27T02:04:14;100401.75;;;2.30;84.14
77303;BME280;66363;49.828;7.856;2023-04-27T02:06:40;100407.16;;;2.24;84.58
77303;BME280;66363;49.828;7.856;2023-04-27T02:09:05;100408.03;;;2.24;84.69
77303;BME280;66363;49.828;7.856;2023-04-27T02:11:31;100417.78;;;2.19;84.57
77303;BME280;66363;49.828;7.856;2023-04-27T02:13:57;100410.13;;;2.13;85.21
77303;BME280;66363;49.828;7.856;2023-04-27T02:16:24;100416.97;;;2.17;84.95
77303;BME280;66363;49.828;7.856;2023-04-27T02:18:49;100422.22;;;2.17;84.77
77303;BME280;66363;49.828;7.856;2023-04-27T02:21:15;100421.22;;;2.21;84.63
77303;BME280;66363;49.828;7.856;2023-04-27T02:23:41;100422.25;;;2.16;85.25
77303;BME280;66363;49.828;7.856;2023-04-27T02:26:06;100430.06;;;2.17;85.01
77303;BME280;66363;49.828;7.856;2023-04-27T02:28:32;100430.03;;;2.19;85.50
77303;BME280;66363;49.828;7.856;2023-04-27T02:30:58;100420.59;;;2.13;85.61
77303;BME280;66363;49.828;7.856;2023-04-27T02:33:25;100419.81;;;2.10;85.38
77303;BME280;66363;49.828;7.856;2023-04-27T02:35:51;100419.88;;;2.08;84.92
77303;BME280;66363;49.828;7.856;2023-04-27T02:38:16;100418.09;;;2.09;84.95
77303;BME280;66363;49.828;7.856;2023-04-27T02:40:42;100419.13;;;2.04;85.27
77303;BME280;66363;49.828;7.856;2023-04-27T02:43:07;100429.84;;;1.97;85.52
77303;BME280;66363;49.828;7.856;2023-04-27T02:45:36;100416.78;;;1.95;85.06
77303;BME280;66363;49.828;7.856;2023-04-27T02:48:01;100412.38;;;1.97;84.92
77303;BME280;66363;49.828;7.856;2023-04-27T02:50:28;100414.19;;;1.95;85.01
77303;BME280;66363;49.828;7.856;2023-04-27T02:52:54;100417.97;;;1.85;85.25
77303;BME280;66363;49.828;7.856;2023-04-27T02:55:20;100420.59;;;1.85;85.18
77303;BME280;66363;49.828;7.856;2023-04-27T02:57:46;100419.03;;;1.80;85.56
77303;BME280;66363;49.828;7.856;2023-04-27T03:00:12;100414.88;;;1.73;85.98
77303;BME280;66363;49.828;7.856;2023-04-27T03:02:38;100422.72;;;1.73;86.08
77303;BME280;66363;49.828;7.856;2023-04-27T03:05:04;100427.97;;;1.73;86.21
77303;BME280;66363;49.828;7.856;2023-04-27T03:07:31;100414.16;;;1.67;86.30
77303;BME280;66363;49.828;7.856;2023-04-27T03:09:56;100428.16;;;1.65;86.39
77303;BME280;66363;49.828;7.856;2023-04-27T03:12:22;100424.66;;;1.66;86.21
77303;BME280;66363;49.828;7.856;2023-04-27T03:14:48;100426.59;;;1.59;86.02
77303;BME280;66363;49.828;7.856;2023-04-27T03:17:13;100418.81;;;1.56;86.20
77303;BME280;66363;49.828;7.856;2023-04-27T03:19:39;100422.53;;;1.49;86.48
77303;BME280;66363;49.828;7.856;2023-04-27T03:22:04;100417.06;;;1.57;86.47
77303;BME280;66363;49.828;7.856;2023-04-27T03:24:31;100415.19;;;1.62;85.77
77303;BME280;66363;49.828;7.856;2023-04-27T03:26:57;100412.44;;;1.66;85.87
77303;BME280;66363;49.828;7.856;2023-04-27T03:29:23;100410.53;;;1.72;85.67
77303;BME280;66363;49.828;7.856;2023-04-27T03:31:48;100415.66;;;1.76;85.53
77303;BME280;66363;49.828;7.856;2023-04-27T03:34:14;100406.56;;;1.88;85.29
77303;BME280;66363;49.828;7.856;2023-04-27T03:36:40;100403.66;;;1.97;84.51
77303;BME280;66363;49.828;7.856;2023-04-27T03:39:05;100406.31;;;1.95;83.94
77303;BME280;66363;49.828;7.856;2023-04-27T03:41:32;100404.44;;;2.00;84.12
77303;BME280;66363;49.828;7.856;2023-04-27T03:43:58;100410.38;;;2.06;84.13
77303;BME280;66363;49.828;7.856;2023-04-27T03:46:24;100404.03;;;2.13;83.56
77303;BME280;66363;49.828;7.856;2023-04-27T03:48:49;100411.03;;;2.12;83.71
77303;BME280;66363;49.828;7.856;2023-04-27T03:51:15;100415.44;;;2.10;83.32
77303;BME280;66363;49.828;7.856;2023-04-27T03:53:41;100408.81;;;2.00;83.73
77303;BME280;66363;49.828;7.856;2023-04-27T03:56:06;100409.88;;;1.93;83.97
77303;BME280;66363;49.828;7.856;2023-04-27T03:58:33;100403.84;;;1.91;84.27
77303;BME280;66363;49.828;7.856;2023-04-27T04:00:59;100401.09;;;1.95;84.00
77303;BME280;66363;49.828;7.856;2023-04-27T04:03:25;100400.97;;;2.00;83.73
77303;BME280;66363;49.828;7.856;2023-04-27T04:05:51;100400.00;;;2.02;84.06
77303;BME280;66363;49.828;7.856;2023-04-27T04:08:16;100397.25;;;2.07;84.02
77303;BME280;66363;49.828;7.856;2023-04-27T04:10:42;100402.41;;;2.09;84.05
77303;BME280;66363;49.828;7.856;2023-04-27T04:13:08;100405.84;;;2.11;83.65
77303;BME280;66363;49.828;7.856;2023-04-27T04:15:35;100412.03;;;2.08;84.48
77303;BME280;66363;49.828;7.856;2023-04-27T04:18:00;100413.69;;;2.11;83.91
77303;BME280;66363;49.828;7.856;2023-04-27T04:20:26;100422.44;;;2.10;83.92
77303;BME280;66363;49.828;7.856;2023-04-27T04:22:52;100423.31;;;2.10;84.19
77303;BME280;66363;49.828;7.856;2023-04-27T04:25:18;100422.44;;;2.10;84.30
77303;BME280;66363;49.828;7.856;2023-04-27T04:27:43;100419.28;;;2.00;84.41
77303;BME280;66363;49.828;7.856;2023-04-27T04:30:10;100421.00;;;2.01;84.33
77303;BME280;66363;49.828;7.856;2023-04-27T04:32:37;100418.38;;;2.01;84.10
77303;BME280;66363;49.828;7.856;2023-04-27T04:35:03;100418.38;;;2.01;84.38
77303;BME280;66363;49.828;7.856;2023-04-27T04:37:29;100411.38;;;2.01;84.29
77303;BME280;66363;49.828;7.856;2023-04-27T04:39:54;100417.25;;;2.08;84.54
77303;BME280;66363;49.828;7.856;2023-04-27T04:42:20;100413.72;;;2.09;84.40
77303;BME280;66363;49.828;7.856;2023-04-27T04:44:46;100405.09;;;2.07;84.82
77303;BME280;66363;49.828;7.856;2023-04-27T04:47:11;100417.03;;;2.16;84.60
77303;BME280;66363;49.828;7.856;2023-04-27T04:49:38;100415.06;;;2.22;84.01
77303;BME280;66363;49.828;7.856;2023-04-27T04:52:04;100424.41;;;2.31;83.71
77303;BME280;66363;49.828;7.856;2023-04-27T04:54:30;100421.66;;;2.34;84.01
77303;BME280;66363;49.828;7.856;2023-04-27T04:56:55;100432.91;;;2.37;83.93
77303;BME280;66363;49.828;7.856;2023-04-27T04:59:21;100439.72;;;2.43;83.68
77303;BME280;66363;49.828;7.856;2023-04-27T05:01:47;100441.31;;;2.47;83.22
77303;BME280;66363;49.828;7.856;2023-04-27T05:04:12;100442.00;;;2.54;83.38
77303;BME280;66363;49.828;7.856;2023-04-27T05:06:39;100443.47;;;2.61;83.45
77303;BME280;66363;49.828;7.856;2023-04-27T05:09:05;100451.09;;;2.68;82.76
77303;BME280;66363;49.828;7.856;2023-04-27T05:11:31;100450.00;;;2.76;82.65
77303;BME280;66363;49.828;7.856;2023-04-27T05:13:56;100453.41;;;2.78;82.82
77303;BME280;66363;49.828;7.856;2023-04-27T05:16:22;100453.22;;;2.84;82.80
77303;BME280;66363;49.828;7.856;2023-04-27T05:18:48;100452.94;;;2.91;81.87
77303;BME280;66363;49.828;7.856;2023-04-27T05:21:14;100449.31;;;2.95;81.88
77303;BME280;66363;49.828;7.856;2023-04-27T05:23:41;100450.94;;;2.99;81.60
77303;BME280;66363;49.828;7.856;2023-04-27T05:26:11;100442.91;;;3.04;81.41
77303;BME280;66363;49.828;7.856;2023-04-27T05:28:36;100454.66;;;3.17;81.67
77303;BME280;66363;49.828;7.856;2023-04-27T05:31:02;100457.25;;;3.19;80.81
77303;BME280;66363;49.828;7.856;2023-04-27T05:33:28;100464.09;;;3.23;81.29
77303;BME280;66363;49.828;7.856;2023-04-27T05:35:53;100456.88;;;3.29;80.47
77303;BME280;66363;49.828;7.856;2023-04-27T05:38:19;100457.16;;;3.45;80.07
77303;BME280;66363;49.828;7.856;2023-04-27T05:40:46;100464.03;;;3.49;80.19
77303;BME280;66363;49.828;7.856;2023-04-27T05:43:11;100463.75;;;3.57;79.26
77303;BME280;66363;49.828;7.856;2023-04-27T05:45:38;100468.41;;;3.72;79.61
77303;BME280;66363;49.828;7.856;2023-04-27T05:48:04;100450.97;;;3.71;78.52
77303;BME280;66363;49.828;7.856;2023-04-27T05:50:30;100474.34;;;4.00;77.75
77303;BME280;66363;49.828;7.856;2023-04-27T05:52:55;100475.28;;;4.21;77.54
77303;BME280;66363;49.828;7.856;2023-04-27T05:55:21;100471.34;;;4.33;76.63
77303;BME280;66363;49.828;7.856;2023-04-27T05:57:48;100467.06;;;4.52;76.02
77303;BME280;66363;49.828;7.856;2023-04-27T06:00:15;100477.78;;;4.68;75.87
77303;BME280;66363;49.828;7.856;2023-04-27T06:02:41;100468.31;;;4.86;74.99
77303;BME280;66363;49.828;7.856;2023-04-27T06:05:07;100481.09;;;5.15;74.13
77303;BME280;66363;49.828;7.856;2023-04-27T06:07:33;100488.66;;;5.43;72.43
77303;BME280;66363;49.828;7.856;2023-04-27T06:09:58;100486.47;;;5.53;72.34
77303;BME280;66363;49.828;7.856;2023-04-27T06:12:24;100486.28;;;5.76;71.93
77303;BME280;66363;49.828;7.856;2023-04-27T06:14:51;100485.72;;;5.90;70.69
77303;BME280;66363;49.828;7.856;2023-04-27T06:17:16;100486.56;;;6.09;69.80
77303;BME280;66363;49.828;7.856;2023-04-27T06:19:42;100489.84;;;6.14;69.47
77303;BME280;66363;49.828;7.856;2023-04-27T06:22:09;100485.28;;;6.18;70.10
77303;BME280;66363;49.828;7.856;2023-04-27T06:24:34;100488.97;;;6.32;69.12
77303;BME280;66363;49.828;7.856;2023-04-27T06:27:00;100487.81;;;6.57;67.88
77303;BME280;66363;49.828;7.856;2023-04-27T06:29:25;100486.28;;;6.70;67.25
77303;BME280;66363;49.828;7.856;2023-04-27T06:31:52;100487.00;;;6.91;66.01
77303;BME280;66363;49.828;7.856;2023-04-27T06:34:18;100486.78;;;7.12;65.66
77303;BME280;66363;49.828;7.856;2023-04-27T06:36:44;100492.44;;;7.39;65.24
77303;BME280;66363;49.828;7.856;2023-04-27T06:39:09;100493.28;;;7.40;65.54
77303;BME280;66363;49.828;7.856;2023-04-27T06:41:35;100486.09;;;7.26;64.32
77303;BME280;66363;49.828;7.856;2023-04-27T06:44:01;100485.00;;;7.13;65.15
77303;BME280;66363;49.828;7.856;2023-04-27T06:46:26;100484.84;;;7.16;64.93
77303;BME280;66363;49.828;7.856;2023-04-27T06:48:53;100496.09;;;7.20;65.06
77303;BME280;66363;49.828;7.856;2023-04-27T06:51:19;100494.06;;;7.42;64.43
77303;BME280;66363;49.828;7.856;2023-04-27T06:53:44;100496.84;;;7.89;63.65
77303;BME280;66363;49.828;7.856;2023-04-27T06:56:11;100492.75;;;8.32;60.99
77303;BME280;66363;49.828;7.856;2023-04-27T06:58:36;100498.88;;;8.64;59.36
77303;BME280;66363;49.828;7.856;2023-04-27T07:01:02;100491.59;;;9.13;56.11
77303;BME280;66363;49.828;7.856;2023-04-27T07:03:28;100486.50;;;9.55;54.92
77303;BME280;66363;49.828;7.856;2023-04-27T07:05:55;100483.97;;;9.96;54.26
77303;BME280;66363;49.828;7.856;2023-04-27T07:08:21;100485.66;;;10.39;53.24
77303;BME280;66363;49.828;7.856;2023-04-27T07:10:46;100489.22;;;10.79;49.66
77303;BME280;66363;49.828;7.856;2023-04-27T07:13:12;100488.72;;;11.39;49.79
77303;BME280;66363;49.828;7.856;2023-04-27T07:15:37;100478.88;;;11.67;49.49
77303;BME280;66363;49.828;7.856;2023-04-27T07:18:03;100480.72;;;12.28;46.76
77303;BME280;66363;49.828;7.856;2023-04-27T07:20:29;100469.63;;;12.34;46.52
77303;BME280;66363;49.828;7.856;2023-04-27T07:22:56;100474.22;;;12.56;45.11
77303;BME280;66363;49.828;7.856;2023-04-27T07:25:21;100480.56;;;12.42;44.52
77303;BME280;66363;49.828;7.856;2023-04-27T07:27:47;100472.75;;;12.52;44.00
77303;BME280;66363;49.828;7.856;2023-04-27T07:30:13;100470.34;;;12.73;44.21
77303;BME280;66363;49.828;7.856;2023-04-27T07:32:39;100472.53;;;12.79;42.80
77303;BME280;66363;49.828;7.856;2023-04-27T07:35:05;100465.16;;;13.06;43.80
77303;BME280;66363;49.828;7.856;2023-04-27T07:37:30;100466.69;;;13.21;42.67
77303;BME280;66363;49.828;7.856;2023-04-27T07:39:57;100462.94;;;13.24;44.99
77303;BME280;66363;49.828;7.856;2023-04-27T07:42:23;100471.81;;;13.36;43.05
77303;BME280;66363;49.828;7.856;2023-04-27T07:44:49;100457.22;;;13.75;42.27
77303;BME280;66363;49.828;7.856;2023-04-27T07:47:14;100456.97;;;13.67;41.35
77303;BME280;66363;49.828;7.856;2023-04-27T07:49:40;100464.50;;;13.95;39.91
77303;BME280;66363;49.828;7.856;2023-04-27T07:52:06;100471.16;;;14.12;41.96
77303;BME280;66363;49.828;7.856;2023-04-27T07:54:31;100459.72;;;14.54;39.63
77303;BME280;66363;49.828;7.856;2023-04-27T07:56:58;100453.66;;;14.52;41.91
77303;BME280;66363;49.828;7.856;2023-04-27T07:59:27;100453.78;;;14.83;40.69
77303;BME280;66363;49.828;7.856;2023-04-27T08:01:53;100450.97;;;15.16;37.61
77303;BME280;66363;49.828;7.856;2023-04-27T08:04:18;100460.38;;;15.32;38.29
77303;BME280;66363;49.828;7.856;2023-04-27T08:06:44;100466.25;;;15.25;37.19
77303;BME280;66363;49.828;7.856;2023-04-27T08:09:10;100467.69;;;16.11;37.83
77303;BME280;66363;49.828;7.856;2023-04-27T08:11:35;100460.00;;;16.77;36.50
77303;BME280;66363;49.828;7.856;2023-04-27T08:14:02;100466.91;;;17.28;36.32
77303;BME280;66363;49.828;7.856;2023-04-27T08:16:28;100460.66;;;17.56;33.30
77303;BME280;66363;49.828;7.856;2023-04-27T08:18:54;100458.56;;;17.97;34.47
77303;BME280;66363;49.828;7.856;2023-04-27T08:21:19;100457.84;;;17.48;36.67
77303;BME280;66363;49.828;7.856;2023-04-27T08:23:45;100455.69;;;17.71;35.60
77303;BME280;66363;49.828;7.856;2023-04-27T08:26:13;100460.09;;;18.64;32.18
77303;BME280;66363;49.828;7.856;2023-04-27T08:28:39;100466.31;;;18.82;30.93
77303;BME280;66363;49.828;7.856;2023-04-27T08:31:07;100467.53;;;19.23;30.04
77303;BME280;66363;49.828;7.856;2023-04-27T08:33:32;100464.75;;;19.33;28.51
77303;BME280;66363;49.828;7.856;2023-04-27T08:35:58;100456.03;;;19.13;29.18
77303;BME280;66363;49.828;7.856;2023-04-27T08:38:24;100461.13;;;19.60;29.40
77303;BME280;66363;49.828;7.856;2023-04-27T08:40:50;100454.56;;;20.30;27.93
77303;BME280;66363;49.828;7.856;2023-04-27T08:43:16;100457.13;;;21.07;29.82
77303;BME280;66363;49.828;7.856;2023-04-27T08:45:47;100459.44;;;21.91;26.03
77303;BME280;66363;49.828;7.856;2023-04-27T08:48:14;100457.41;;;21.93;25.30
77303;BME280;66363;49.828;7.856;2023-04-27T08:50:43;100458.53;;;21.27;26.57
77303;BME280;66363;49.828;7.856;2023-04-27T08:53:15;100456.31;;;21.47;26.31
77303;BME280;66363;49.828;7.856;2023-04-27T08:55:41;100448.72;;;21.18;30.57
77303;BME280;66363;49.828;7.856;2023-04-27T08:58:07;100448.38;;;21.05;27.29
77303;BME280;66363;49.828;7.856;2023-04-27T09:00:36;100449.69;;;20.84;28.06
77303;BME280;66363;49.828;7.856;2023-04-27T09:03:03;100448.88;;;20.92;28.56
77303;BME280;66363;49.828;7.856;2023-04-27T09:05:30;100456.47;;;21.61;28.37
77303;BME280;66363;49.828;7.856;2023-04-27T09:07:57;100447.63;;;22.39;27.70
77303;BME280;66363;49.828;7.856;2023-04-27T09:10:23;100445.75;;;22.79;25.31
77303;BME280;66363;49.828;7.856;2023-04-27T09:12:56;100448.22;;;23.86;25.07
77303;BME280;66363;49.828;7.856;2023-04-27T09:15:22;100449.59;;;23.82;23.81
77303;BME280;66363;49.828;7.856;2023-04-27T09:17:51;100440.53;;;23.90;23.97
77303;BME280;66363;49.828;7.856;2023-04-27T09:20:17;100442.66;;;24.24;24.80
77303;BME280;66363;49.828;7.856;2023-04-27T09:22:44;100448.34;;;24.80;21.80
77303;BME280;66363;49.828;7.856;2023-04-27T09:25:10;100441.72;;;24.82;22.00
77303;BME280;66363;49.828;7.856;2023-04-27T09:27:37;100444.22;;;24.84;19.64
77303;BME280;66363;49.828;7.856;2023-04-27T09:30:11;100433.13;;;25.21;19.54
77303;BME280;66363;49.828;7.856;2023-04-27T09:32:37;100423.50;;;25.19;21.27
77303;BME280;66363;49.828;7.856;2023-04-27T09:35:14;100429.06;;;25.11;21.63
77303;BME280;66363;49.828;7.856;2023-04-27T09:37:46;100437.63;;;24.35;21.10
77303;BME280;66363;49.828;7.856;2023-04-27T09:40:12;100431.16;;;24.22;22.33
77303;BME280;66363;49.828;7.856;2023-04-27T09:42:38;100437.53;;;23.99;22.36
77303;BME280;66363;49.828;7.856;2023-04-27T09:45:06;100422.75;;;24.31;22.07
77303;BME280;66363;49.828;7.856;2023-04-27T09:47:34;100434.91;;;24.06;21.42
77303;BME280;66363;49.828;7.856;2023-04-27T09:50:00;100431.72;;;25.04;22.32
77303;BME280;66363;49.828;7.856;2023-04-27T09:52:27;100427.00;;;25.13;21.68
77303;BME280;66363;49.828;7.856;2023-04-27T09:54:56;100427.06;;;24.11;22.46
77303;BME280;66363;49.828;7.856;2023-04-27T09:57:29;100416.34;;;25.95;21.60
77303;BME280;66363;49.828;7.856;2023-04-27T10:00:12;100414.09;;;25.71;21.94
77303;BME280;66363;49.828;7.856;2023-04-27T10:02:51;100424.69;;;26.34;21.68
77303;BME280;66363;49.828;7.856;2023-04-27T10:05:37;100416.69;;;25.85;21.29
77303;BME280;66363;49.828;7.856;2023-04-27T10:08:08;100416.06;;;25.83;20.48
77303;BME280;66363;49.828;7.856;2023-04-27T10:10:48;100410.81;;;26.84;19.61
77303;BME280;66363;49.828;7.856;2023-04-27T10:13:22;100409.78;;;26.91;21.58
77303;BME280;66363;49.828;7.856;2023-04-27T10:15:48;100406.19;;;26.78;20.83
77303;BME280;66363;49.828;7.856;2023-04-27T10:18:24;100404.22;;;26.52;21.54
77303;BME280;66363;49.828;7.856;2023-04-27T10:20:50;100411.22;;;27.86;17.67
77303;BME280;66363;49.828;7.856;2023-04-27T10:23:21;100402.47;;;27.71;19.15
77303;BME280;66363;49.828;7.856;2023-04-27T10:25:48;100412.91;;;27.87;20.41
77303;BME280;66363;49.828;7.856;2023-04-27T10:28:15;100395.78;;;27.27;19.81
77303;BME280;66363;49.828;7.856;2023-04-27T10:30:44;100398.81;;;28.03;19.12
77303;BME280;66363;49.828;7.856;2023-04-27T10:33:10;100403.38;;;28.23;17.46
77303;BME280;66363;49.828;7.856;2023-04-27T10:35:41;100395.56;;;27.16;19.67
77303;BME280;66363;49.828;7.856;2023-04-27T10:38:08;100398.88;;;27.57;19.00
77303;BME280;66363;49.828;7.856;2023-04-27T10:40:35;100388.25;;;27.23;19.50
77303;BME280;66363;49.828;7.856;2023-04-27T10:43:09;100396.47;;;26.42;20.22
77303;BME280;66363;49.828;7.856;2023-04-27T10:45:35;100398.84;;;26.78;19.24
77303;BME280;66363;49.828;7.856;2023-04-27T10:48:01;100393.66;;;26.90;17.96
77303;BME280;66363;49.828;7.856;2023-04-27T10:50:27;100392.41;;;27.78;16.78
77303;BME280;66363;49.828;7.856;2023-04-27T10:52:52;100391.81;;;28.27;17.75
77303;BME280;66363;49.828;7.856;2023-04-27T10:55:19;100390.56;;;28.17;18.17
77303;BME280;66363;49.828;7.856;2023-04-27T10:57:47;100384.59;;;27.88;17.32
77303;BME280;66363;49.828;7.856;2023-04-27T11:00:15;100373.09;;;28.69;18.84
77303;BME280;66363;49.828;7.856;2023-04-27T11:02:46;100361.06;;;28.45;20.46
77303;BME280;66363;49.828;7.856;2023-04-27T11:05:16;100368.75;;;29.43;21.32
77303;BME280;66363;49.828;7.856;2023-04-27T11:07:42;100368.28;;;27.62;22.26
77303;BME280;66363;49.828;7.856;2023-04-27T11:10:09;100366.44;;;27.16;24.51
77303;BME280;66363;49.828;7.856;2023-04-27T11:12:35;100359.66;;;27.78;22.88
77303;BME280;66363;49.828;7.856;2023-04-27T11:15:01;100357.63;;;26.94;22.83
77303;BME280;66363;49.828;7.856;2023-04-27T11:17:30;100356.97;;;27.52;21.98
77303;BME280;66363;49.828;7.856;2023-04-27T11:19:56;100349.63;;;26.86;18.91
77303;BME280;66363;49.828;7.856;2023-04-27T11:22:22;100358.56;;;28.37;19.63
77303;BME280;66363;49.828;7.856;2023-04-27T11:24:48;100347.84;;;27.91;20.10
77303;BME280;66363;49.828;7.856;2023-04-27T11:27:14;100350.88;;;28.59;18.70
77303;BME280;66363;49.828;7.856;2023-04-27T11:29:40;100346.88;;;29.18;18.60
77303;BME280;66363;49.828;7.856;2023-04-27T11:32:06;100332.06;;;28.82;18.45
77303;BME280;66363;49.828;7.856;2023-04-27T11:34:33;100334.31;;;27.51;19.06
77303;BME280;66363;49.828;7.856;2023-04-27T11:37:00;100340.03;;;28.52;19.09
77303;BME280;66363;49.828;7.856;2023-04-27T11:39:26;100337.66;;;28.24;17.12
77303;BME280;66363;49.828;7.856;2023-04-27T11:41:52;100339.59;;;27.40;20.10
77303;BME280;66363;49.828;7.856;2023-04-27T11:44:18;100341.47;;;26.73;20.65
77303;BME280;66363;49.828;7.856;2023-04-27T11:46:43;100341.84;;;26.57;22.67
77303;BME280;66363;49.828;7.856;2023-04-27T11:49:09;100335.59;;;26.63;22.86
77303;BME280;66363;49.828;7.856;2023-04-27T11:51:38;100329.13;;;27.23;18.71
77303;BME280;66363;49.828;7.856;2023-04-27T11:54:05;100336.41;;;27.69;21.42
77303;BME280;66363;49.828;7.856;2023-04-27T11:56:34;100328.75;;;27.00;18.64
77303;BME280;66363;49.828;7.856;2023-04-27T11:59:00;100316.81;;;26.14;20.37
77303;BME280;66363;49.828;7.856;2023-04-27T12:01:26;100315.00;;;26.34;21.29
77303;BME280;66363;49.828;7.856;2023-04-27T12:03:52;100325.69;;;25.81;22.53
77303;BME280;66363;49.828;7.856;2023-04-27T12:06:23;100319.88;;;26.78;21.17
77303;BME280;66363;49.828;7.856;2023-04-27T12:08:50;100313.38;;;26.46;20.94
77303;BME280;66363;49.828;7.856;2023-04-27T12:11:16;100313.16;;;25.87;22.53
77303;BME280;66363;49.828;7.856;2023-04-27T12:13:41;100312.69;;;25.08;20.43
77303;BME280;66363;49.828;7.856;2023-04-27T12:16:07;100318.09;;;24.58;21.79
77303;BME280;66363;49.828;7.856;2023-04-27T12:18:33;100316.59;;;24.56;23.88
77303;BME280;66363;49.828;7.856;2023-04-27T12:21:00;100313.22;;;25.59;22.20
77303;BME280;66363;49.828;7.856;2023-04-27T12:23:25;100308.16;;;26.78;19.51
77303;BME280;66363;49.828;7.856;2023-04-27T12:25:52;100304.91;;;26.28;21.94
77303;BME280;66363;49.828;7.856;2023-04-27T12:28:18;100303.50;;;27.51;20.67
77303;BME280;66363;49.828;7.856;2023-04-27T12:30:44;100304.06;;;27.79;20.20
77303;BME280;66363;49.828;7.856;2023-04-27T12:33:09;100297.41;;;27.62;18.39
77303;BME280;66363;49.828;7.856;2023-04-27T12:35:35;100297.59;;;26.28;20.11
77303;BME280;66363;49.828;7.856;2023-04-27T12:38:01;100297.06;;;25.51;20.99
77303;BME280;66363;49.828;7.856;2023-04-27T12:40:26;100295.78;;;25.81;20.71
77303;BME280;66363;49.828;7.856;2023-04-27T12:42:53;100295.56;;;27.36;19.87
77303;BME280;66363;49.828;7.856;2023-04-27T12:45:19;100284.28;;;27.90;20.39
77303;BME280;66363;49.828;7.856;2023-04-27T12:47:45;100278.53;;;28.99;18.09
77303;BME280;66363;49.828;7.856;2023-04-27T12:50:10;100274.09;;;28.74;18.27
77303;BME280;66363;49.828;7.856;2023-04-27T12:52:36;100283.19;;;28.36;20.25